Pahala, Hawaii
Current Conditions -  °F | °C
As of 7:56 PM on Wednesday 28 Jan 2015 (Local Time) from PHSF Reporting Station
Drizzle Drizzle  
Wind Chill: 52°   Ceiling: Unl
Heat Index: 52°   Visibility: 0.12mi
Dew Point: 51°   Wind: 2mph
Humidity: 99%   Direction: 10°N
Pressure: 30.25"   Gusts: NA
Location:  19.2°N, 155.47°W
Report Text: PHSF 290556Z AUTO 01002KT 1/8SM +DZ FG CLR 11/11 A3025 RMK AO2 SLP146 T01090107 10197 20104 50010 $
Loading
Personal Weather Stations






























Interactive Weather Map New forecast layout! Learn more

10-Day Weather Forecast

Advertisements
Track Severe Weather on mobile